Time,TemperatureF,DewpointF,PressureIn,WindDirection,WindDirectionDegrees,WindSpeedMPH,WindSpeedGustMPH,Humidity,HourlyPrecipIn,Conditions,Clouds,dailyrainin,SoftwareType,DateUTC
2013-04-05 00:00:00,35.2,34.7,29.99,SSW,205,0.0,5.0,98,0.00,,,0.50,Wunderground v.1.15,2013-04-05 04:00:00,
2013-04-05 00:05:00,35.2,34.7,29.99,SSW,205,0.0,5.0,98,0.00,,,0.50,Wunderground v.1.15,2013-04-05 04:05:00,
2013-04-05 00:10:00,35.2,34.7,29.99,SSW,205,0.0,0.0,98,0.00,,,0.50,Wunderground v.1.15,2013-04-05 04:10:00,
2013-04-05 00:15:00,35.2,34.7,29.99,SSW,205,0.0,0.0,98,0.00,,,0.50,Wunderground v.1.15,2013-04-05 04:15:00,
2013-04-05 00:20:00,35.3,34.8,29.99,SSW,205,0.0,0.0,98,0.00,,,0.50,Wunderground v.1.15,2013-04-05 04:20:00,
2013-04-05 00:30:00,35.3,34.8,29.99,SSW,205,0.0,0.0,98,0.00,,,0.50,Wunderground v.1.15,2013-04-05 04:30:00,
2013-04-05 00:35:00,35.3,34.8,29.99,SSW,205,0.0,0.0,98,0.00,,,0.50,Wunderground v.1.15,2013-04-05 04:35:00,
2013-04-05 00:40:00,35.3,34.8,29.99,SSW,205,0.0,0.0,98,0.00,,,0.50,Wunderground v.1.15,2013-04-05 04:40:00,
2013-04-05 00:45:00,35.4,34.9,29.99,SSW,205,0.0,0.0,98,0.00,,,0.50,Wunderground v.1.15,2013-04-05 04:45:00,
2013-04-05 00:55:00,35.4,34.9,29.99,SSW,205,0.0,0.0,98,0.00,,,0.50,Wunderground v.1.15,2013-04-05 04:55:00,
2013-04-05 01:00:00,35.4,34.9,29.99,SSW,205,0.0,0.0,98,0.00,,,0.50,Wunderground v.1.15,2013-04-05 05:00:00,
2013-04-05 01:05:00,35.4,34.9,29.99,SSW,205,0.0,0.0,98,0.00,,,0.50,Wunderground v.1.15,2013-04-05 05:05:00,
2013-04-05 01:15:00,35.4,34.9,29.99,SSW,205,0.0,0.0,98,0.00,,,0.00,Wunderground v.1.15,2013-04-05 05:15:00,
2013-04-05 01:20:00,35.5,35.0,29.99,SSW,205,0.0,0.0,98,0.00,,,0.00,Wunderground v.1.15,2013-04-05 05:20:00,
2013-04-05 01:25:00,35.5,35.0,29.99,SSW,205,0.0,0.0,98,0.00,,,0.00,Wunderground v.1.15,2013-04-05 05:25:00,
2013-04-05 01:35:00,35.5,35.0,29.99,SSW,205,0.0,0.0,98,0.00,,,0.00,Wunderground v.1.15,2013-04-05 05:35:00,
2013-04-05 01:40:00,35.5,35.0,29.99,SSW,205,0.0,0.0,98,0.00,,,0.00,Wunderground v.1.15,2013-04-05 05:40:00,
2013-04-05 01:45:00,35.6,35.1,29.99,SSW,205,0.0,0.0,98,0.00,,,0.00,Wunderground v.1.15,2013-04-05 05:45:00,
2013-04-05 01:50:00,35.5,35.0,29.98,SSW,205,0.0,0.0,98,0.00,,,0.00,Wunderground v.1.15,2013-04-05 05:50:00,
2013-04-05 01:55:00,35.5,35.0,29.99,SSW,205,0.0,0.0,98,0.00,,,0.00,Wunderground v.1.15,2013-04-05 05:55:00,
2013-04-05 02:00:00,35.5,35.0,29.98,SSW,205,0.0,0.0,98,0.00,,,0.00,Wunderground v.1.15,2013-04-05 06:00:00,
2013-04-05 02:10:00,35.4,34.9,29.98,SSW,205,0.0,0.0,98,0.00,,,0.00,Wunderground v.1.15,2013-04-05 06:10:00,
2013-04-05 02:15:00,35.5,35.0,29.99,SSW,205,0.0,0.0,98,0.00,,,0.00,Wunderground v.1.15,2013-04-05 06:15:00,
2013-04-05 02:20:00,35.5,35.0,29.99,SSW,205,0.0,0.0,98,0.00,,,0.00,Wunderground v.1.15,2013-04-05 06:20:00,
2013-04-05 02:25:00,35.6,35.1,29.99,SSW,205,0.0,0.0,98,0.00,,,0.00,Wunderground v.1.15,2013-04-05 06:25:00,
2013-04-05 02:35:00,35.6,35.1,29.99,SSW,205,0.0,0.0,98,0.00,,,0.00,Wunderground v.1.15,2013-04-05 06:35:00,
2013-04-05 02:40:00,35.6,35.1,29.99,SSW,205,0.0,0.0,98,0.00,,,0.00,Wunderground v.1.15,2013-04-05 06:40:00,
2013-04-05 02:45:00,35.6,35.1,29.99,SSW,205,0.0,0.0,98,0.00,,,0.00,Wunderground v.1.15,2013-04-05 06:45:00,
2013-04-05 02:55:00,35.6,35.1,29.99,SSW,205,0.0,0.0,98,0.00,,,0.00,Wunderground v.1.15,2013-04-05 06:55:00,
2013-04-05 03:00:00,35.6,35.1,29.98,SSW,205,0.0,0.0,98,0.00,,,0.00,Wunderground v.1.15,2013-04-05 07:00:00,
2013-04-05 03:05:00,35.5,35.0,29.98,SSW,205,0.0,1.0,98,0.00,,,0.00,Wunderground v.1.15,2013-04-05 07:05:00,
2013-04-05 03:15:00,35.5,35.0,29.99,SSW,205,0.0,1.0,98,0.00,,,0.00,Wunderground v.1.15,2013-04-05 07:15:00,
2013-04-05 03:20:00,35.6,35.1,29.98,SSW,205,0.0,1.0,98,0.00,,,0.00,Wunderground v.1.15,2013-04-05 07:20:00,
2013-04-05 03:25:00,35.7,35.2,29.99,SSW,205,0.0,1.0,98,0.00,,,0.00,Wunderground v.1.15,2013-04-05 07:25:00,
2013-04-05 03:40:00,35.8,35.5,29.99,SSW,205,0.0,1.0,99,0.00,,,0.00,Wunderground v.1.15,2013-04-05 07:40:00,
2013-04-05 03:45:00,35.8,35.5,29.99,SSW,205,0.0,1.0,99,0.00,,,0.00,Wunderground v.1.15,2013-04-05 07:45:00,
2013-04-05 03:55:00,35.7,35.4,29.99,SSW,205,0.0,1.0,99,0.00,,,0.00,Wunderground v.1.15,2013-04-05 07:55:00,
2013-04-05 04:00:00,35.7,35.4,29.99,SSW,205,0.0,1.0,99,0.00,,,0.00,Wunderground v.1.15,2013-04-05 08:00:00,
2013-04-05 04:05:00,35.7,35.2,29.99,NNW,340,1.0,2.0,98,0.00,,,0.00,Wunderground v.1.15,2013-04-05 08:05:00,
2013-04-05 04:15:00,35.7,35.2,29.99,NNW,340,1.0,2.0,98,0.00,,,0.00,Wunderground v.1.15,2013-04-05 08:15:00,
2013-04-05 04:20:00,35.7,35.2,29.99,NNW,340,2.0,4.0,98,0.00,,,0.00,Wunderground v.1.15,2013-04-05 08:20:00,
2013-04-05 04:30:00,35.7,35.2,29.98,North,360,4.0,7.0,98,0.00,,,0.00,Wunderground v.1.15,2013-04-05 08:30:00,
2013-04-05 04:35:00,35.6,35.1,29.98,North,355,6.0,7.0,98,0.00,,,0.00,Wunderground v.1.15,2013-04-05 08:35:00,
2013-04-05 04:40:00,35.6,35.1,29.98,North,5,6.0,7.0,98,0.00,,,0.00,Wunderground v.1.15,2013-04-05 08:40:00,
2013-04-05 04:45:00,35.5,35.0,29.99,North,360,6.0,7.0,98,0.00,,,0.00,Wunderground v.1.15,2013-04-05 08:45:00,
2013-04-05 04:50:00,35.5,35.0,29.98,North,360,6.0,6.0,98,0.00,,,0.00,Wunderground v.1.15,2013-04-05 08:50:00,
2013-04-05 04:55:00,35.4,34.9,29.98,North,360,5.0,6.0,98,0.00,,,0.00,Wunderground v.1.15,2013-04-05 08:55:00,
2013-04-05 05:00:00,35.4,35.1,29.98,North,360,5.0,5.0,99,0.00,,,0.00,Wunderground v.1.15,2013-04-05 09:00:00,
2013-04-05 05:05:00,35.4,35.1,29.98,North,355,5.0,13.0,99,0.00,,,0.00,Wunderground v.1.15,2013-04-05 09:05:00,
2013-04-05 05:15:00,35.5,35.2,29.98,North,360,6.0,13.0,99,0.00,,,0.00,Wunderground v.1.15,2013-04-05 09:15:00,
2013-04-05 05:20:00,35.5,35.2,29.98,North,355,8.0,13.0,99,0.00,,,0.00,Wunderground v.1.15,2013-04-05 09:20:00,
2013-04-05 05:30:00,35.7,35.2,29.98,North,360,9.0,9.0,98,0.00,,,0.00,Wunderground v.1.15,2013-04-05 09:30:00,
2013-04-05 05:35:00,35.7,35.2,29.98,North,360,10.0,10.0,98,0.00,,,0.00,Wunderground v.1.15,2013-04-05 09:35:00,
2013-04-05 05:40:00,35.7,35.2,29.98,North,5,9.0,13.0,98,0.00,,,0.00,Wunderground v.1.15,2013-04-05 09:40:00,
2013-04-05 05:50:00,35.7,35.2,29.99,North,360,9.0,13.0,98,0.00,,,0.00,Wunderground v.1.15,2013-04-05 09:50:00,
2013-04-05 06:00:00,35.6,35.1,29.98,North,5,11.0,13.0,98,0.00,,,0.00,Wunderground v.1.15,2013-04-05 10:00:00,
2013-04-05 06:05:00,35.6,35.1,29.98,North,360,10.0,18.0,98,0.00,,,0.00,Wunderground v.1.15,2013-04-05 10:05:00,
2013-04-05 06:15:00,35.6,35.1,29.98,North,5,11.0,18.0,98,0.00,,,0.00,Wunderground v.1.15,2013-04-05 10:15:00,
2013-04-05 06:20:00,35.6,35.1,29.98,North,5,11.0,11.0,98,0.00,,,0.00,Wunderground v.1.15,2013-04-05 10:20:00,
2013-04-05 06:25:00,35.6,35.1,29.98,North,360,11.0,18.0,98,0.00,,,0.00,Wunderground v.1.15,2013-04-05 10:25:00,
2013-04-05 06:30:00,35.6,35.1,29.98,North,5,11.0,11.0,98,0.00,,,0.00,Wunderground v.1.15,2013-04-05 10:30:00,
2013-04-05 06:35:00,35.6,35.3,29.98,North,355,11.0,14.0,99,0.00,,,0.00,Wunderground v.1.15,2013-04-05 10:35:00,
2013-04-05 06:45:00,35.6,35.3,29.99,North,355,11.0,18.0,99,0.00,,,0.00,Wunderground v.1.15,2013-04-05 10:45:00,
2013-04-05 06:50:00,35.6,35.3,29.99,NNW,346,11.0,18.0,99,0.00,,,0.00,Wunderground v.1.15,2013-04-05 10:50:00,
2013-04-05 06:55:00,35.6,35.3,30.00,North,360,12.0,18.0,99,0.00,,,0.00,Wunderground v.1.15,2013-04-05 10:55:00,
2013-04-05 07:00:00,35.6,35.3,30.00,North,360,13.0,13.0,99,0.00,,,0.00,Wunderground v.1.15,2013-04-05 11:00:00,
2013-04-05 07:05:00,35.7,35.4,30.00,North,5,13.0,21.0,99,0.00,,,0.00,Wunderground v.1.15,2013-04-05 11:05:00,
2013-04-05 07:15:00,35.6,35.3,30.00,North,355,12.0,21.0,99,0.00,,,0.00,Wunderground v.1.15,2013-04-05 11:15:00,
2013-04-05 07:20:00,35.7,35.4,30.01,North,355,12.0,12.0,99,0.00,,,0.00,Wunderground v.1.15,2013-04-05 11:20:00,
2013-04-05 07:25:00,35.7,35.4,30.01,North,355,12.0,21.0,99,0.00,,,0.00,Wunderground v.1.15,2013-04-05 11:25:00,
2013-04-05 07:35:00,35.7,35.4,30.02,North,360,11.0,14.0,99,0.00,,,0.00,Wunderground v.1.15,2013-04-05 11:35:00,
2013-04-05 07:40:00,35.7,35.4,30.02,North,355,12.0,12.0,99,0.00,,,0.00,Wunderground v.1.15,2013-04-05 11:40:00,
2013-04-05 07:50:00,35.7,35.4,30.03,North,355,10.0,21.0,99,0.00,,,0.00,Wunderground v.1.15,2013-04-05 11:50:00,
2013-04-05 07:55:00,35.8,35.5,30.03,North,360,9.0,21.0,99,0.00,,,0.00,Wunderground v.1.15,2013-04-05 11:55:00,
2013-04-05 08:00:00,35.9,35.6,30.03,North,355,10.0,10.0,99,0.00,,,0.00,Wunderground v.1.15,2013-04-05 12:00:00,
2013-04-05 08:05:00,35.9,35.6,30.04,North,360,10.0,21.0,99,0.00,,,0.00,Wunderground v.1.15,2013-04-05 12:05:00,
2013-04-05 08:15:00,36.0,35.7,30.04,North,355,10.0,12.0,99,0.00,,,0.00,Wunderground v.1.15,2013-04-05 12:15:00,
2013-04-05 08:30:00,36.1,35.8,30.05,North,360,10.0,21.0,99,0.00,,,0.00,Wunderground v.1.15,2013-04-05 12:30:00,
2013-04-05 08:35:00,36.2,35.9,30.05,North,355,11.0,21.0,99,0.00,,,0.00,Wunderground v.1.15,2013-04-05 12:35:00,
2013-04-05 08:40:00,36.2,35.9,30.05,North,355,10.0,21.0,99,0.00,,,0.00,Wunderground v.1.15,2013-04-05 12:40:00,
2013-04-05 08:45:00,36.2,35.9,30.06,North,355,10.0,21.0,99,0.00,,,0.00,Wunderground v.1.15,2013-04-05 12:45:00,
2013-04-05 08:50:00,36.3,36.0,30.05,North,355,10.0,21.0,99,0.00,,,0.00,Wunderground v.1.15,2013-04-05 12:50:00,
2013-04-05 09:00:00,36.3,36.0,30.05,North,355,9.0,21.0,99,0.00,,,0.00,Wunderground v.1.15,2013-04-05 13:00:00,
2013-04-05 09:10:00,36.4,36.1,30.06,North,5,9.0,19.0,99,0.00,,,0.00,Wunderground v.1.15,2013-04-05 13:10:00,
2013-04-05 09:15:00,36.5,36.2,30.06,North,355,8.0,19.0,99,0.00,,,0.00,Wunderground v.1.15,2013-04-05 13:15:00,
2013-04-05 09:20:00,36.5,36.2,30.06,NNW,340,9.0,19.0,99,0.00,,,0.00,Wunderground v.1.15,2013-04-05 13:20:00,
2013-04-05 09:25:00,36.5,36.2,30.06,North,5,9.0,19.0,99,0.00,,,0.00,Wunderground v.1.15,2013-04-05 13:25:00,
2013-04-05 09:35:00,36.6,36.3,30.06,North,349,9.0,19.0,99,0.00,,,0.00,Wunderground v.1.15,2013-04-05 13:35:00,
2013-04-05 09:40:00,36.7,36.4,30.07,North,355,8.0,19.0,99,0.00,,,0.00,Wunderground v.1.15,2013-04-05 13:40:00,
2013-04-05 09:45:00,36.8,36.5,30.07,North,355,8.0,19.0,99,0.00,,,0.00,Wunderground v.1.15,2013-04-05 13:45:00,
2013-04-05 09:50:00,36.8,36.5,30.07,NNW,345,8.0,19.0,99,0.00,,,0.00,Wunderground v.1.15,2013-04-05 13:50:00,
2013-04-05 10:00:00,36.9,36.6,30.07,North,9,8.0,19.0,99,0.00,,,0.00,Wunderground v.1.15,2013-04-05 14:00:00,
2013-04-05 10:05:00,37.0,36.7,30.08,North,5,8.0,19.0,99,0.00,,,0.00,Wunderground v.1.15,2013-04-05 14:05:00,
2013-04-05 10:15:00,37.1,36.8,30.07,North,360,9.0,16.0,99,0.00,,,0.00,Wunderground v.1.15,2013-04-05 14:15:00,
2013-04-05 10:20:00,37.2,36.9,30.07,North,355,9.0,16.0,99,0.00,,,0.00,Wunderground v.1.15,2013-04-05 14:20:00,
2013-04-05 10:25:00,37.3,37.0,30.07,North,355,9.0,16.0,99,0.00,,,0.00,Wunderground v.1.15,2013-04-05 14:25:00,
2013-04-05 10:40:00,37.6,37.3,30.08,North,355,8.0,16.0,99,0.00,,,0.00,Wunderground v.1.15,2013-04-05 14:40:00,
2013-04-05 10:45:00,37.8,37.5,30.08,North,351,8.0,16.0,99,0.00,,,0.00,Wunderground v.1.15,2013-04-05 14:45:00,
2013-04-05 10:50:00,37.8,37.5,30.08,NNW,348,8.0,16.0,99,0.00,,,0.00,Wunderground v.1.15,2013-04-05 14:50:00,
2013-04-05 11:00:00,37.8,37.5,30.09,North,355,8.0,16.0,99,0.00,,,0.00,Wunderground v.1.15,2013-04-05 15:00:00,
2013-04-05 11:05:00,37.9,37.6,30.09,North,360,8.0,16.0,99,0.00,,,0.00,Wunderground v.1.15,2013-04-05 15:05:00,
2013-04-05 11:15:00,38.1,37.8,30.08,North,355,8.0,13.0,99,0.00,,,0.00,Wunderground v.1.15,2013-04-05 15:15:00,
2013-04-05 11:20:00,38.5,38.2,30.08,North,350,7.0,13.0,99,0.00,,,0.00,Wunderground v.1.15,2013-04-05 15:20:00,
2013-04-05 11:25:00,38.9,38.6,30.08,NNW,345,7.0,13.0,99,0.00,,,0.00,Wunderground v.1.15,2013-04-05 15:25:00,
2013-04-05 11:35:00,39.8,39.5,30.08,NNW,346,6.0,13.0,99,0.00,,,0.00,Wunderground v.1.15,2013-04-05 15:35:00,
2013-04-05 11:40:00,40.2,39.9,30.08,North,349,6.0,6.0,99,0.00,,,0.00,Wunderground v.1.15,2013-04-05 15:40:00,
2013-04-05 11:45:00,40.6,40.3,30.08,North,351,6.0,13.0,99,0.00,,,0.00,Wunderground v.1.15,2013-04-05 15:45:00,
2013-04-05 11:50:00,40.8,40.5,30.08,NNW,346,7.0,7.0,99,0.00,,,0.00,Wunderground v.1.15,2013-04-05 15:50:00,
2013-04-05 12:00:00,40.8,40.5,30.08,North,355,7.0,13.0,99,0.00,,,0.00,Wunderground v.1.15,2013-04-05 16:00:00,
2013-04-05 12:05:00,40.9,40.6,30.08,North,350,7.0,13.0,99,0.00,,,0.00,Wunderground v.1.15,2013-04-05 16:05:00,
2013-04-05 12:15:00,41.4,41.1,30.09,North,355,7.0,11.0,99,0.00,,,0.00,Wunderground v.1.15,2013-04-05 16:15:00,
2013-04-05 12:20:00,41.5,41.2,30.08,North,355,7.0,11.0,99,0.00,,,0.00,Wunderground v.1.15,2013-04-05 16:20:00,
2013-04-05 12:25:00,42.5,42.5,30.08,NNW,348,7.0,11.0,100,0.00,,,0.00,Wunderground v.1.15,2013-04-05 16:25:00,
2013-04-05 12:30:00,42.7,42.4,30.08,North,349,7.0,11.0,99,0.00,,,0.00,Wunderground v.1.15,2013-04-05 16:30:00,
2013-04-05 12:40:00,42.5,42.2,30.08,NNW,347,7.0,11.0,99,0.00,,,0.00,Wunderground v.1.15,2013-04-05 16:40:00,
2013-04-05 12:45:00,42.3,42.0,30.08,North,355,8.0,11.0,99,0.00,,,0.00,Wunderground v.1.15,2013-04-05 16:45:00,
2013-04-05 12:50:00,42.4,42.1,30.07,North,355,8.0,13.0,99,0.00,,,0.00,Wunderground v.1.15,2013-04-05 16:50:00,
2013-04-05 12:55:00,42.6,42.3,30.07,North,5,9.0,13.0,99,0.00,,,0.00,Wunderground v.1.15,2013-04-05 16:55:00,
2013-04-05 13:05:00,42.7,42.4,30.07,North,355,9.0,11.0,99,0.00,,,0.00,Wunderground v.1.15,2013-04-05 17:05:00,
2013-04-05 13:15:00,43.2,42.7,30.07,North,351,10.0,11.0,98,0.00,,,0.00,Wunderground v.1.15,2013-04-05 17:15:00,
2013-04-05 13:20:00,43.7,43.2,30.07,NNW,347,9.0,9.0,98,0.00,,,0.00,Wunderground v.1.15,2013-04-05 17:20:00,
2013-04-05 13:25:00,44.6,44.1,30.07,North,355,8.0,10.0,98,0.00,,,0.00,Wunderground v.1.15,2013-04-05 17:25:00,
2013-04-05 13:35:00,47.2,45.8,30.06,North,351,9.0,11.0,95,0.00,,,0.00,Wunderground v.1.15,2013-04-05 17:35:00,
2013-04-05 13:40:00,48.5,46.3,30.06,North,350,9.0,12.0,92,0.00,,,0.00,Wunderground v.1.15,2013-04-05 17:40:00,
2013-04-05 13:45:00,47.9,44.2,30.06,North,355,10.0,12.0,87,0.00,,,0.00,Wunderground v.1.15,2013-04-05 17:45:00,
2013-04-05 13:50:00,46.7,42.7,30.05,North,355,10.0,10.0,86,0.00,,,0.00,Wunderground v.1.15,2013-04-05 17:50:00,
2013-04-05 13:55:00,46.8,43.4,30.05,North,350,9.0,11.0,88,0.00,,,0.00,Wunderground v.1.15,2013-04-05 17:55:00,
2013-04-05 14:05:00,47.9,43.6,30.05,NNW,340,8.0,15.0,85,0.00,,,0.00,Wunderground v.1.15,2013-04-05 18:05:00,
2013-04-05 14:15:00,48.7,43.8,30.05,North,355,8.0,15.0,83,0.00,,,0.00,Wunderground v.1.15,2013-04-05 18:15:00,
2013-04-05 14:20:00,49.0,43.4,30.05,NNW,345,8.0,15.0,81,0.00,,,0.00,Wunderground v.1.15,2013-04-05 18:20:00,
2013-04-05 14:25:00,49.3,44.4,30.05,NNW,339,7.0,15.0,83,0.00,,,0.00,Wunderground v.1.15,2013-04-05 18:25:00,
2013-04-05 14:35:00,51.3,44.7,30.04,NNW,344,7.0,15.0,78,0.00,,,0.00,Wunderground v.1.15,2013-04-05 18:35:00,
2013-04-05 14:45:00,50.7,43.8,30.04,NNW,340,8.0,15.0,77,0.00,,,0.00,Wunderground v.1.15,2013-04-05 18:45:00,
2013-04-05 14:55:00,51.9,45.6,30.04,NNW,331,7.0,15.0,79,0.00,,,0.00,Wunderground v.1.15,2013-04-05 18:55:00,
2013-04-05 15:05:00,51.9,43.2,30.04,NNW,347,8.0,13.0,72,0.00,,,0.00,Wunderground v.1.15,2013-04-05 19:05:00,
2013-04-05 15:15:00,52.9,43.4,30.04,North,355,9.0,12.0,70,0.00,,,0.00,Wunderground v.1.15,2013-04-05 19:15:00,
2013-04-05 15:20:00,53.5,45.8,30.04,NNW,344,9.0,9.0,75,0.00,,,0.00,Wunderground v.1.15,2013-04-05 19:20:00,
2013-04-05 15:25:00,53.6,43.7,30.04,North,351,9.0,12.0,69,0.00,,,0.00,Wunderground v.1.15,2013-04-05 19:25:00,
2013-04-05 15:30:00,53.6,43.7,30.04,North,355,9.0,12.0,69,0.00,,,0.00,Wunderground v.1.15,2013-04-05 19:30:00,
2013-04-05 15:40:00,53.9,42.4,30.04,North,355,10.0,12.0,65,0.00,,,0.00,Wunderground v.1.15,2013-04-05 19:40:00,
2013-04-05 15:45:00,53.9,43.2,30.04,NNW,342,10.0,12.0,67,0.00,,,0.00,Wunderground v.1.15,2013-04-05 19:45:00,
2013-04-05 15:50:00,54.2,42.7,30.03,North,355,9.0,12.0,65,0.00,,,0.00,Wunderground v.1.15,2013-04-05 19:50:00,
2013-04-05 15:55:00,54.6,42.7,30.04,NNW,345,8.0,12.0,64,0.00,,,0.00,Wunderground v.1.15,2013-04-05 19:55:00,
2013-04-05 16:05:00,54.2,41.0,30.03,North,349,9.0,15.0,61,0.00,,,0.00,Wunderground v.1.15,2013-04-05 20:05:00,
2013-04-05 16:15:00,54.2,40.2,30.03,NNW,336,10.0,15.0,59,0.00,,,0.00,Wunderground v.1.15,2013-04-05 20:15:00,
2013-04-05 16:25:00,55.0,40.5,30.03,North,350,9.0,15.0,58,0.00,,,0.00,Wunderground v.1.15,2013-04-05 20:25:00,
2013-04-05 16:35:00,54.9,39.9,30.02,NNW,347,9.0,15.0,57,0.00,,,0.00,Wunderground v.1.15,2013-04-05 20:35:00,
2013-04-05 16:45:00,54.3,41.1,30.02,NNW,346,10.0,12.0,61,0.00,,,0.00,Wunderground v.1.15,2013-04-05 20:45:00,
2013-04-05 16:55:00,55.6,41.0,30.02,NNW,347,9.0,15.0,58,0.00,,,0.00,Wunderground v.1.15,2013-04-05 20:55:00,
2013-04-05 17:05:00,56.6,41.5,30.02,North,351,9.0,18.0,57,0.00,,,0.00,Wunderground v.1.15,2013-04-05 21:05:00,
2013-04-05 17:15:00,56.8,41.7,30.03,NNW,345,9.0,18.0,57,0.00,,,0.00,Wunderground v.1.15,2013-04-05 21:15:00,
2013-04-05 17:25:00,55.8,40.8,30.03,NNW,342,10.0,18.0,57,0.00,,,0.00,Wunderground v.1.15,2013-04-05 21:25:00,
2013-04-05 17:30:00,55.8,39.4,30.03,North,355,10.0,18.0,54,0.00,,,0.00,Wunderground v.1.15,2013-04-05 21:30:00,
2013-04-05 17:40:00,55.7,40.2,30.03,North,355,9.0,18.0,56,0.00,,,0.00,Wunderground v.1.15,2013-04-05 21:40:00,
2013-04-05 17:45:00,56.0,39.6,30.03,North,360,9.0,18.0,54,0.00,,,0.00,Wunderground v.1.15,2013-04-05 21:45:00,
2013-04-05 17:50:00,56.1,40.6,30.04,North,360,9.0,18.0,56,0.00,,,0.00,Wunderground v.1.15,2013-04-05 21:50:00,
2013-04-05 17:55:00,55.7,38.3,30.04,NNW,348,9.0,18.0,52,0.00,,,0.00,Wunderground v.1.15,2013-04-05 21:55:00,
2013-04-05 18:05:00,55.4,39.5,30.04,North,350,8.0,18.0,55,0.00,,,0.00,Wunderground v.1.15,2013-04-05 22:05:00,
2013-04-05 18:15:00,55.4,39.5,30.04,North,355,9.0,11.0,55,0.00,,,0.00,Wunderground v.1.15,2013-04-05 22:15:00,
2013-04-05 18:20:00,55.3,39.4,30.04,NNW,342,9.0,9.0,55,0.00,,,0.00,Wunderground v.1.15,2013-04-05 22:20:00,
2013-04-05 18:25:00,55.3,39.4,30.03,NNW,346,8.0,15.0,55,0.00,,,0.00,Wunderground v.1.15,2013-04-05 22:25:00,
2013-04-05 18:35:00,55.0,39.6,30.04,North,355,9.0,15.0,56,0.00,,,0.00,Wunderground v.1.15,2013-04-05 22:35:00,
2013-04-05 18:40:00,54.7,39.3,30.04,NNW,327,10.0,15.0,56,0.00,,,0.00,Wunderground v.1.15,2013-04-05 22:40:00,
2013-04-05 18:45:00,54.3,39.4,30.04,North,351,9.0,15.0,57,0.00,,,0.00,Wunderground v.1.15,2013-04-05 22:45:00,
2013-04-05 18:50:00,54.1,39.6,30.04,NNW,342,9.0,9.0,58,0.00,,,0.00,Wunderground v.1.15,2013-04-05 22:50:00,
2013-04-05 19:00:00,53.9,39.5,30.04,NNW,343,9.0,9.0,58,0.00,,,0.00,Wunderground v.1.15,2013-04-05 23:00:00,
2013-04-05 19:05:00,53.8,39.8,30.04,North,351,8.0,18.0,59,0.00,,,0.00,Wunderground v.1.15,2013-04-05 23:05:00,
2013-04-05 19:15:00,53.1,39.1,30.05,North,351,9.0,18.0,59,0.00,,,0.00,Wunderground v.1.15,2013-04-05 23:15:00,
2013-04-05 19:20:00,52.8,39.7,30.05,North,350,8.0,8.0,61,0.00,,,0.00,Wunderground v.1.15,2013-04-05 23:20:00,
2013-04-05 19:25:00,52.5,39.0,30.05,North,355,8.0,18.0,60,0.00,,,0.00,Wunderground v.1.15,2013-04-05 23:25:00,
2013-04-05 19:30:00,52.3,39.2,30.05,NNW,344,8.0,8.0,61,0.00,,,0.00,Wunderground v.1.15,2013-04-05 23:30:00,
2013-04-05 19:40:00,51.6,38.6,30.06,North,360,8.0,8.0,61,0.00,,,0.00,Wunderground v.1.15,2013-04-05 23:40:00,
2013-04-05 19:45:00,51.1,38.5,30.06,North,355,8.0,18.0,62,0.00,,,0.00,Wunderground v.1.15,2013-04-05 23:45:00,
2013-04-05 19:50:00,50.6,38.1,30.06,North,355,8.0,8.0,62,0.00,,,0.00,Wunderground v.1.15,2013-04-05 23:50:00,
2013-04-05 19:55:00,50.1,37.6,30.06,North,5,8.0,18.0,62,0.00,,,0.00,Wunderground v.1.15,2013-04-05 23:55:00,
2013-04-05 20:00:00,49.6,37.1,30.06,North,350,8.0,8.0,62,0.00,,,0.00,Wunderground v.1.15,2013-04-06 00:00:00,
2013-04-05 20:05:00,49.3,37.2,30.07,North,355,8.0,12.0,63,0.00,,,0.00,Wunderground v.1.15,2013-04-06 00:05:00,
2013-04-05 20:15:00,48.8,36.8,30.07,North,360,7.0,12.0,63,0.00,,,0.00,Wunderground v.1.15,2013-04-06 00:15:00,
2013-04-05 20:20:00,48.6,36.6,30.07,North,355,7.0,12.0,63,0.00,,,0.00,Wunderground v.1.15,2013-04-06 00:20:00,
2013-04-05 20:25:00,48.5,36.5,30.07,North,360,7.0,12.0,63,0.00,,,0.00,Wunderground v.1.15,2013-04-06 00:25:00,
2013-04-05 20:35:00,48.4,36.8,30.07,North,360,6.0,12.0,64,0.00,,,0.00,Wunderground v.1.15,2013-04-06 00:35:00,
2013-04-05 20:40:00,48.4,36.8,30.07,North,5,7.0,7.0,64,0.00,,,0.00,Wunderground v.1.15,2013-04-06 00:40:00,
2013-04-05 20:45:00,48.2,36.6,30.07,North,355,7.0,8.0,64,0.00,,,0.00,Wunderground v.1.15,2013-04-06 00:45:00,
2013-04-05 20:55:00,48.1,36.9,30.07,North,5,7.0,12.0,65,0.00,,,0.00,Wunderground v.1.15,2013-04-06 00:55:00,
2013-04-05 21:05:00,48.0,36.4,30.08,North,355,6.0,13.0,64,0.00,,,0.00,Wunderground v.1.15,2013-04-06 01:05:00,
2013-04-05 21:15:00,47.9,36.7,30.08,North,5,6.0,13.0,65,0.00,,,0.00,Wunderground v.1.15,2013-04-06 01:15:00,
2013-04-05 21:20:00,47.9,36.7,30.08,North,360,5.0,5.0,65,0.00,,,0.00,Wunderground v.1.15,2013-04-06 01:20:00,
2013-04-05 21:30:00,47.7,36.5,30.08,North,355,5.0,13.0,65,0.00,,,0.00,Wunderground v.1.15,2013-04-06 01:30:00,
2013-04-05 21:35:00,47.5,36.3,30.09,North,355,4.0,13.0,65,0.00,,,0.00,Wunderground v.1.15,2013-04-06 01:35:00,
2013-04-05 21:40:00,47.4,36.6,30.09,North,355,3.0,3.0,66,0.00,,,0.00,Wunderground v.1.15,2013-04-06 01:40:00,
2013-04-05 21:45:00,47.2,36.8,30.09,North,351,3.0,13.0,67,0.00,,,0.00,Wunderground v.1.15,2013-04-06 01:45:00,
2013-04-05 21:55:00,47.0,36.6,30.10,NNW,348,3.0,13.0,67,0.00,,,0.00,Wunderground v.1.15,2013-04-06 01:55:00,
2013-04-05 22:00:00,47.0,36.6,30.10,North,360,4.0,13.0,67,0.00,,,0.00,Wunderground v.1.15,2013-04-06 02:00:00,
2013-04-05 22:05:00,47.0,36.6,30.10,North,360,4.0,13.0,67,0.00,,,0.00,Wunderground v.1.15,2013-04-06 02:05:00,
2013-04-05 22:15:00,47.0,36.6,30.10,North,355,3.0,11.0,67,0.00,,,0.00,Wunderground v.1.15,2013-04-06 02:15:00,
2013-04-05 22:20:00,46.9,36.1,30.10,North,360,3.0,11.0,66,0.00,,,0.00,Wunderground v.1.15,2013-04-06 02:20:00,
2013-04-05 22:30:00,47.0,36.2,30.10,North,360,5.0,11.0,66,0.00,,,0.00,Wunderground v.1.15,2013-04-06 02:30:00,
2013-04-05 22:35:00,47.0,36.2,30.10,North,360,5.0,11.0,66,0.00,,,0.00,Wunderground v.1.15,2013-04-06 02:35:00,
2013-04-05 22:40:00,46.9,36.1,30.10,North,360,5.0,11.0,66,0.00,,,0.00,Wunderground v.1.15,2013-04-06 02:40:00,
2013-04-05 22:45:00,46.9,36.1,30.10,North,351,5.0,11.0,66,0.00,,,0.00,Wunderground v.1.15,2013-04-06 02:45:00,
2013-04-05 22:55:00,46.8,36.4,30.10,North,355,4.0,11.0,67,0.00,,,0.00,Wunderground v.1.15,2013-04-06 02:55:00,
2013-04-05 23:00:00,46.6,36.6,30.10,North,355,3.0,3.0,68,0.00,,,0.00,Wunderground v.1.15,2013-04-06 03:00:00,
2013-04-05 23:10:00,45.9,35.9,30.10,North,355,0.0,8.0,68,0.00,,,0.00,Wunderground v.1.15,2013-04-06 03:10:00,
2013-04-05 23:15:00,45.7,36.1,30.10,North,355,0.0,8.0,69,0.00,,,0.00,Wunderground v.1.15,2013-04-06 03:15:00,
2013-04-05 23:20:00,45.5,35.9,30.10,North,355,0.0,8.0,69,0.00,,,0.00,Wunderground v.1.15,2013-04-06 03:20:00,
2013-04-05 23:25:00,45.3,36.1,30.10,North,355,0.0,8.0,70,0.00,,,0.00,Wunderground v.1.15,2013-04-06 03:25:00,
2013-04-05 23:30:00,45.1,35.9,30.10,North,355,0.0,8.0,70,0.00,,,0.00,Wunderground v.1.15,2013-04-06 03:30:00,
2013-04-05 23:35:00,45.0,35.8,30.10,North,355,0.0,8.0,70,0.00,,,0.00,Wunderground v.1.15,2013-04-06 03:35:00,
2013-04-05 23:44:00,44.7,35.9,30.10,North,355,0.0,8.0,71,0.00,,,0.00,Wunderground v.1.15,2013-04-06 03:44:00,
2013-04-05 23:50:00,44.6,35.8,30.10,North,355,0.0,8.0,71,0.00,,,0.00,Wunderground v.1.15,2013-04-06 03:50:00,